Time;durP1;ratioP1;P1;durP2;ratioP2;P2;SDS_P1;SDS_P2;PMS_P1;PMS_P2;Temp;Humidity;BMP_temperature;BMP_pressure;BME280_temperature;BME280_humidity;BME280_pressure;Samples;Min_cycle;Max_cycle;Signal;HPM_P1;HPM_P2
2022/12/30 00:01:20;;;;;;;0.20;0.20;;;;;;;;;;5051571;28;20239;-66
2022/12/30 00:03:47;;;;;;;0.20;0.20;;;;;;;;;;5056862;28;20520;-66
2022/12/30 00:06:15;;;;;;;0.10;0.10;;;;;;;;;;5054757;28;20572;-66
2022/12/30 00:08:47;;;;;;;0.10;0.10;;;;;;;;;;5060850;28;20240;-65
2022/12/30 00:11:14;;;;;;;0.20;0.20;;;;;;;;;;5055139;28;20488;-66
2022/12/30 00:33:08;;;;;;;0.40;0.40;;;;;;;;;;5072042;28;20205;-65
2022/12/30 00:35:35;;;;;;;0.10;0.10;;;;;;;;;;5044089;28;20640;-64
2022/12/30 00:38:01;;;;;;;0.20;0.20;;;;;;;;;;5071318;28;20232;-66
2022/12/30 00:40:29;;;;;;;0.10;0.10;;;;;;;;;;5042006;28;20295;-66
2022/12/30 00:43:09;;;;;;;0.10;0.10;;;;;;;;;;5072786;28;20194;-67
2022/12/30 00:45:37;;;;;;;0.10;0.10;;;;;;;;;;5044241;28;20493;-66
2022/12/30 00:56:17;;;;;;;0.10;0.10;;;;;;;;;;5054890;28;20320;-65
2022/12/30 00:58:44;;;;;;;0.50;0.50;;;;;;;;;;5059498;28;20225;-66
2022/12/30 01:01:10;;;;;;;0.10;0.10;;;;;;;;;;5052747;28;20410;-66
2022/12/30 01:03:38;;;;;;;0.10;0.10;;;;;;;;;;5061561;28;20262;-66
2022/12/30 01:06:07;;;;;;;0.10;0.10;;;;;;;;;;5051203;28;20266;-66
2022/12/30 01:08:34;;;;;;;0.10;0.10;;;;;;;;;;5062086;28;20573;-66
2022/12/30 01:11:04;;;;;;;0.10;0.10;;;;;;;;;;5050254;28;20554;-66
2022/12/30 01:13:31;;;;;;;0.17;0.17;;;;;;;;;;5062828;28;20254;-67
2022/12/30 01:15:57;;;;;;;0.20;0.20;;;;;;;;;;5048767;28;20328;-66
2022/12/30 01:18:24;;;;;;;1.93;1.63;;;;;;;;;;5064304;28;20206;-69
2022/12/30 01:20:51;;;;;;;0.20;0.20;;;;;;;;;;5047224;28;20257;-70
2022/12/30 01:23:18;;;;;;;0.10;0.10;;;;;;;;;;5066124;28;20280;-70
2022/12/30 01:25:44;;;;;;;0.20;0.20;;;;;;;;;;5045324;28;20310;-69
2022/12/30 01:28:10;;;;;;;0.10;0.10;;;;;;;;;;5067575;28;20287;-70
2022/12/30 01:30:37;;;;;;;0.10;0.10;;;;;;;;;;5043622;28;20252;-69
2022/12/30 01:33:03;;;;;;;0.10;0.10;;;;;;;;;;5069587;28;20194;-70
2022/12/30 01:35:30;;;;;;;0.83;0.83;;;;;;;;;;5041645;28;20287;-69
2022/12/30 01:37:57;;;;;;;0.10;0.10;;;;;;;;;;5071466;28;20455;-68
2022/12/30 01:40:24;;;;;;;0.17;0.17;;;;;;;;;;5039645;28;20206;-69
2022/12/30 01:42:50;;;;;;;0.20;0.20;;;;;;;;;;5073253;28;20260;-70
2022/12/30 01:45:20;;;;;;;0.10;0.10;;;;;;;;;;5038040;28;20238;-69
2022/12/30 01:47:49;;;;;;;0.20;0.20;;;;;;;;;;5073878;28;20235;-69
2022/12/30 01:50:27;;;;;;;0.10;0.10;;;;;;;;;;5037316;28;20205;-70
2022/12/30 01:52:55;;;;;;;0.20;0.20;;;;;;;;;;5071759;28;20204;-68
2022/12/30 01:55:25;;;;;;;0.10;0.10;;;;;;;;;;5038889;28;20535;-69
2022/12/30 01:57:52;;;;;;;0.10;0.10;;;;;;;;;;5072798;28;20194;-69
2022/12/30 02:00:18;;;;;;;0.10;0.10;;;;;;;;;;5038047;28;20350;-70
2022/12/30 02:02:45;;;;;;;0.20;0.20;;;;;;;;;;5073808;28;20193;-69
2022/12/30 02:05:12;;;;;;;0.10;0.10;;;;;;;;;;5035730;28;20232;-67
2022/12/30 02:07:39;;;;;;;0.10;0.10;;;;;;;;;;5075704;28;20231;-70
2022/12/30 02:10:08;;;;;;;0.10;0.10;;;;;;;;;;5045306;28;20205;-68
2022/12/30 02:12:35;;;;;;;0.17;0.17;;;;;;;;;;5033516;28;20231;-69
2022/12/30 02:15:03;;;;;;;0.17;0.17;;;;;;;;;;5045183;28;20548;-66
2022/12/30 02:17:33;;;;;;;0.10;0.10;;;;;;;;;;5066646;28;20308;-68
2022/12/30 02:20:20;;;;;;;0.20;0.20;;;;;;;;;;5045227;28;20230;-68
2022/12/30 02:22:57;;;;;;;0.20;0.20;;;;;;;;;;5044742;28;20196;-68
2022/12/30 02:25:41;;;;;;;0.20;0.20;;;;;;;;;;5039057;28;20511;-69
2022/12/30 02:28:25;;;;;;;0.17;0.17;;;;;;;;;;5066356;28;20251;-69
2022/12/30 02:31:00;;;;;;;0.13;0.13;;;;;;;;;;5046144;28;20246;-69
2022/12/30 02:33:28;;;;;;;0.20;0.20;;;;;;;;;;5062394;28;20383;-69
2022/12/30 02:36:01;;;;;;;0.10;0.10;;;;;;;;;;5047016;28;20570;-69
2022/12/30 02:38:35;;;;;;;0.10;0.10;;;;;;;;;;5061962;28;20271;-69
2022/12/30 02:46:37;;;;;;;0.20;0.20;;;;;;;;;;5056962;28;20607;-70
2022/12/30 02:49:04;;;;;;;0.20;0.20;;;;;;;;;;5052701;28;20243;-69
2022/12/30 02:54:15;;;;;;;0.10;0.10;;;;;;;;;;5049123;28;20238;-69
2022/12/30 02:56:47;;;;;;;0.77;0.77;;;;;;;;;;5059077;28;20235;-70
2022/12/30 03:04:54;;;;;;;0.20;0.20;;;;;;;;;;5044498;28;20207;-70
2022/12/30 03:07:24;;;;;;;2.37;1.80;;;;;;;;;;5065795;28;20499;-69
2022/12/30 03:12:43;;;;;;;0.20;0.20;;;;;;;;;;5038168;28;20215;-69
2022/12/30 03:15:15;;;;;;;0.20;0.20;;;;;;;;;;5034734;28;20546;-69
2022/12/30 03:17:44;;;;;;;0.10;0.10;;;;;;;;;;5073411;28;20280;-70
2022/12/30 03:20:13;;;;;;;0.10;0.10;;;;;;;;;;5034810;28;20244;-69
2022/12/30 03:28:10;;;;;;;0.13;0.13;;;;;;;;;;5066284;28;20211;-69
2022/12/30 03:30:40;;;;;;;0.10;0.10;;;;;;;;;;5041439;28;20302;-70
2022/12/30 03:33:08;;;;;;;0.10;0.10;;;;;;;;;;5066606;28;20200;-69
2022/12/30 03:35:37;;;;;;;0.10;0.10;;;;;;;;;;5040751;28;20242;-70
2022/12/30 03:38:04;;;;;;;0.20;0.20;;;;;;;;;;5067327;28;20293;-69
2022/12/30 03:40:35;;;;;;;0.20;0.20;;;;;;;;;;5039314;28;20235;-70
2022/12/30 03:43:02;;;;;;;0.10;0.10;;;;;;;;;;5067813;28;20263;-69
2022/12/30 03:45:28;;;;;;;0.10;0.10;;;;;;;;;;5038971;28;20746;-69
2022/12/30 03:47:55;;;;;;;0.20;0.20;;;;;;;;;;5069388;28;20267;-69
2022/12/30 03:50:22;;;;;;;0.10;0.10;;;;;;;;;;5037172;28;20569;-69
2022/12/30 03:52:49;;;;;;;0.20;0.20;;;;;;;;;;5071699;28;20234;-69
2022/12/30 03:55:15;;;;;;;0.10;0.10;;;;;;;;;;5034944;28;20211;-69
2022/12/30 03:57:42;;;;;;;0.20;0.20;;;;;;;;;;5073593;28;20260;-69
2022/12/30 04:00:09;;;;;;;0.10;0.10;;;;;;;;;;5033997;28;20211;-68
2022/12/30 04:02:36;;;;;;;0.20;0.20;;;;;;;;;;5074367;28;20207;-69
2022/12/30 04:05:02;;;;;;;0.10;0.10;;;;;;;;;;5043678;28;20304;-67
2022/12/30 04:07:30;;;;;;;0.20;0.20;;;;;;;;;;5065230;28;20299;-69
2022/12/30 04:09:56;;;;;;;0.20;0.20;;;;;;;;;;5043698;28;20275;-69
2022/12/30 04:12:22;;;;;;;0.10;0.10;;;;;;;;;;5065138;28;20549;-69
2022/12/30 04:14:49;;;;;;;0.10;0.10;;;;;;;;;;5043593;28;20400;-69
2022/12/30 04:17:15;;;;;;;0.10;0.10;;;;;;;;;;5065145;28;20235;-69
2022/12/30 04:19:42;;;;;;;0.20;0.20;;;;;;;;;;5043387;28;20276;-69
2022/12/30 04:22:08;;;;;;;0.20;0.20;;;;;;;;;;5065086;28;20599;-69
2022/12/30 04:24:36;;;;;;;0.17;0.17;;;;;;;;;;5043503;28;20212;-69
2022/12/30 04:27:02;;;;;;;0.20;0.20;;;;;;;;;;5063482;28;20234;-68
2022/12/30 04:29:28;;;;;;;0.10;0.10;;;;;;;;;;5044493;28;20246;-70
2022/12/30 04:31:55;;;;;;;0.10;0.10;;;;;;;;;;5061650;28;20307;-69
2022/12/30 04:34:21;;;;;;;0.20;0.20;;;;;;;;;;5045940;28;20271;-70
2022/12/30 04:36:47;;;;;;;0.20;0.20;;;;;;;;;;5059658;28;20562;-70
2022/12/30 04:39:14;;;;;;;0.20;0.20;;;;;;;;;;5048243;28;20262;-69
2022/12/30 04:41:42;;;;;;;0.20;0.20;;;;;;;;;;5057634;28;20263;-70
2022/12/30 04:44:08;;;;;;;0.20;0.20;;;;;;;;;;5049955;28;20247;-70
2022/12/30 04:46:34;;;;;;;0.20;0.20;;;;;;;;;;5056114;28;20237;-70
2022/12/30 04:49:01;;;;;;;0.20;0.20;;;;;;;;;;5051782;28;20239;-68
2022/12/30 04:51:27;;;;;;;0.20;0.20;;;;;;;;;;5054894;28;20313;-69
2022/12/30 04:53:53;;;;;;;0.10;0.10;;;;;;;;;;5057130;28;20235;-69
2022/12/30 04:56:20;;;;;;;0.20;0.20;;;;;;;;;;5055642;28;20519;-69
2022/12/30 04:58:48;;;;;;;0.20;0.20;;;;;;;;;;5058415;28;20204;-68
2022/12/30 05:01:14;;;;;;;0.10;0.10;;;;;;;;;;5053188;28;20578;-68
2022/12/30 05:03:40;;;;;;;0.17;0.17;;;;;;;;;;5061141;28;20271;-70
2022/12/30 05:06:07;;;;;;;0.10;0.10;;;;;;;;;;5051794;28;20253;-68
2022/12/30 05:08:33;;;;;;;0.10;0.10;;;;;;;;;;5061975;28;20273;-69
2022/12/30 05:11:00;;;;;;;0.37;0.37;;;;;;;;;;5049911;28;20246;-68
2022/12/30 05:13:26;;;;;;;0.10;0.10;;;;;;;;;;5063849;28;20272;-68
2022/12/30 05:15:54;;;;;;;0.17;0.17;;;;;;;;;;5047719;28;20249;-69
2022/12/30 05:18:20;;;;;;;0.20;0.20;;;;;;;;;;5065923;28;20275;-69
2022/12/30 05:20:48;;;;;;;0.77;0.77;;;;;;;;;;5046215;28;20246;-69
2022/12/30 05:28:38;;;;;;;0.17;0.17;;;;;;;;;;5060565;28;20202;-69
2022/12/30 05:31:06;;;;;;;0.20;0.20;;;;;;;;;;5050833;28;20258;-69
2022/12/30 05:33:33;;;;;;;0.10;0.10;;;;;;;;;;5062045;28;20208;-70
2022/12/30 05:35:59;;;;;;;0.20;0.20;;;;;;;;;;5049379;28;20253;-69
2022/12/30 05:38:25;;;;;;;0.10;0.10;;;;;;;;;;5063905;28;20276;-70
2022/12/30 05:40:52;;;;;;;0.20;0.20;;;;;;;;;;5047164;28;20322;-70
2022/12/30 05:43:18;;;;;;;0.10;0.10;;;;;;;;;;5065383;28;20276;-70
2022/12/30 05:45:44;;;;;;;0.20;0.20;;;;;;;;;;5045411;28;20484;-70
2022/12/30 05:48:12;;;;;;;0.20;0.20;;;;;;;;;;5067480;28;20315;-69
2022/12/30 05:50:40;;;;;;;0.20;0.20;;;;;;;;;;5043450;28;20266;-69
2022/12/30 05:53:06;;;;;;;0.20;0.20;;;;;;;;;;5068755;28;20227;-69
2022/12/30 05:55:32;;;;;;;0.10;0.10;;;;;;;;;;5041847;28;20262;-68
2022/12/30 05:57:59;;;;;;;0.10;0.10;;;;;;;;;;5070519;28;20189;-70
2022/12/30 06:00:25;;;;;;;0.10;0.10;;;;;;;;;;5038781;28;20280;-69
2022/12/30 06:02:51;;;;;;;0.20;0.20;;;;;;;;;;5073381;28;20196;-70
2022/12/30 06:05:19;;;;;;;0.20;0.20;;;;;;;;;;5038096;28;20212;-69
2022/12/30 06:07:45;;;;;;;0.10;0.10;;;;;;;;;;5074080;28;20216;-69
2022/12/30 06:10:12;;;;;;;0.20;0.20;;;;;;;;;;5036463;28;20232;-69
2022/12/30 06:12:38;;;;;;;0.20;0.20;;;;;;;;;;5075480;28;20263;-68
2022/12/30 06:15:05;;;;;;;0.10;0.10;;;;;;;;;;5044641;28;20280;-70
2022/12/30 06:17:31;;;;;;;0.20;0.20;;;;;;;;;;5033386;28;20227;-69
2022/12/30 06:19:58;;;;;;;0.20;0.20;;;;;;;;;;5045196;28;20277;-70
2022/12/30 06:22:25;;;;;;;0.13;0.13;;;;;;;;;;5066651;28;20644;-69
2022/12/30 06:24:52;;;;;;;0.20;0.20;;;;;;;;;;5045059;28;20263;-69
2022/12/30 06:27:18;;;;;;;0.20;0.20;;;;;;;;;;5066379;28;20242;-70
2022/12/30 06:29:44;;;;;;;0.20;0.20;;;;;;;;;;5044979;28;20211;-69
2022/12/30 06:32:11;;;;;;;0.20;0.20;;;;;;;;;;5066424;28;20306;-69
2022/12/30 06:34:37;;;;;;;0.20;0.20;;;;;;;;;;5044769;28;20498;-70
2022/12/30 06:37:03;;;;;;;0.10;0.10;;;;;;;;;;5065201;28;20633;-70
2022/12/30 06:39:31;;;;;;;0.10;0.10;;;;;;;;;;5045184;28;20467;-70
2022/12/30 06:41:58;;;;;;;0.10;0.10;;;;;;;;;;5063604;28;20239;-69
2022/12/30 06:44:24;;;;;;;0.10;0.10;;;;;;;;;;5046980;28;20243;-69
2022/12/30 06:46:50;;;;;;;0.20;0.20;;;;;;;;;;5061528;28;20242;-69
2022/12/30 06:49:17;;;;;;;0.10;0.10;;;;;;;;;;5048971;28;20523;-69
2022/12/30 06:51:43;;;;;;;0.10;0.10;;;;;;;;;;5059641;28;20288;-69
2022/12/30 06:54:09;;;;;;;0.10;0.10;;;;;;;;;;5050498;28;20235;-68
2022/12/30 06:56:37;;;;;;;0.20;0.20;;;;;;;;;;5057287;28;20248;-69
2022/12/30 06:59:04;;;;;;;0.20;0.20;;;;;;;;;;5052322;28;20208;-68
2022/12/30 07:01:30;;;;;;;0.20;0.20;;;;;;;;;;5055717;28;20264;-69
2022/12/30 07:03:56;;;;;;;0.10;0.10;;;;;;;;;;5054004;28;20211;-70
2022/12/30 07:06:23;;;;;;;0.20;0.20;;;;;;;;;;5053766;28;20250;-69
2022/12/30 07:08:49;;;;;;;0.20;0.20;;;;;;;;;;5055928;28;20286;-69
2022/12/30 07:11:15;;;;;;;0.20;0.20;;;;;;;;;;5051967;28;20258;-68
2022/12/30 07:13:43;;;;;;;0.20;0.20;;;;;;;;;;5057413;28;20272;-68
2022/12/30 07:16:09;;;;;;;0.20;0.20;;;;;;;;;;5050074;28;20489;-68
2022/12/30 07:18:36;;;;;;;0.20;0.20;;;;;;;;;;5059401;28;20449;-70
2022/12/30 07:21:02;;;;;;;0.20;0.20;;;;;;;;;;5048171;28;20264;-66
2022/12/30 07:23:28;;;;;;;0.20;0.20;;;;;;;;;;5060974;28;20204;-68
2022/12/30 07:25:55;;;;;;;0.20;0.20;;;;;;;;;;5046052;28;20261;-68
2022/12/30 07:28:21;;;;;;;0.20;0.20;;;;;;;;;;5062843;28;20262;-69
2022/12/30 07:30:49;;;;;;;0.20;0.20;;;;;;;;;;5044317;28;20636;-69
2022/12/30 07:33:15;;;;;;;0.20;0.20;;;;;;;;;;5064734;28;20262;-69
2022/12/30 07:35:42;;;;;;;0.20;0.20;;;;;;;;;;5042775;28;20242;-70
2022/12/30 07:38:08;;;;;;;0.20;0.20;;;;;;;;;;5066426;28;20367;-69
2022/12/30 07:40:36;;;;;;;0.10;0.10;;;;;;;;;;5040760;28;20246;-73
2022/12/30 07:43:02;;;;;;;0.20;0.20;;;;;;;;;;5067769;28;20205;-72
2022/12/30 07:45:29;;;;;;;0.20;0.20;;;;;;;;;;5038981;28;20320;-71
2022/12/30 07:47:59;;;;;;;0.20;0.20;;;;;;;;;;5069768;28;20405;-72
2022/12/30 07:50:26;;;;;;;0.10;0.10;;;;;;;;;;5038501;28;20506;-71
2022/12/30 07:52:52;;;;;;;0.20;0.20;;;;;;;;;;5070623;28;20263;-71
2022/12/30 07:55:18;;;;;;;0.20;0.20;;;;;;;;;;5035943;28;20238;-71
2022/12/30 07:57:45;;;;;;;0.20;0.20;;;;;;;;;;5072813;28;20219;-71
2022/12/30 08:00:12;;;;;;;0.10;0.10;;;;;;;;;;5034550;28;20558;-73
2022/12/30 08:02:39;;;;;;;0.20;0.20;;;;;;;;;;5074255;28;20197;-74
2022/12/30 08:05:07;;;;;;;0.13;0.13;;;;;;;;;;5043754;28;20245;-70
2022/12/30 08:07:34;;;;;;;0.10;0.10;;;;;;;;;;5031902;28;20223;-72
2022/12/30 08:10:00;;;;;;;0.10;0.10;;;;;;;;;;5043641;28;20279;-72
2022/12/30 08:12:26;;;;;;;0.23;0.23;;;;;;;;;;5065201;28;20258;-72
2022/12/30 08:14:53;;;;;;;0.10;0.10;;;;;;;;;;5043682;28;20238;-73
2022/12/30 08:17:19;;;;;;;0.20;0.20;;;;;;;;;;5065114;28;20440;-68
2022/12/30 08:19:46;;;;;;;0.13;0.13;;;;;;;;;;5043165;28;20205;-69
2022/12/30 08:22:13;;;;;;;9.27;0.50;;;;;;;;;;5065097;28;20245;-69
2022/12/30 08:24:40;;;;;;;0.10;0.10;;;;;;;;;;5043517;28;20208;-76
2022/12/30 08:27:06;;;;;;;0.10;0.10;;;;;;;;;;5066483;28;20267;-70
2022/12/30 08:29:32;;;;;;;0.23;0.23;;;;;;;;;;5047333;28;20455;-69
2022/12/30 08:31:59;;;;;;;0.20;0.20;;;;;;;;;;5066693;28;20618;-70
2022/12/30 08:34:25;;;;;;;0.10;0.10;;;;;;;;;;5049018;28;20276;-71
2022/12/30 08:36:52;;;;;;;0.20;0.20;;;;;;;;;;5064849;28;20581;-75
2022/12/30 08:39:20;;;;;;;0.57;0.57;;;;;;;;;;5050624;28;20275;-72
2022/12/30 08:41:46;;;;;;;0.20;0.20;;;;;;;;;;5063202;28;20502;-75
2022/12/30 08:44:13;;;;;;;0.10;0.10;;;;;;;;;;5051892;28;20208;-74
2022/12/30 08:46:41;;;;;;;0.10;0.10;;;;;;;;;;5061108;28;20325;-73
2022/12/30 08:49:08;;;;;;;0.20;0.20;;;;;;;;;;5053282;28;20615;-72
2022/12/30 08:51:34;;;;;;;0.10;0.10;;;;;;;;;;5059895;28;20245;-73
2022/12/30 08:54:01;;;;;;;0.10;0.10;;;;;;;;;;5055243;28;20204;-72
2022/12/30 08:56:29;;;;;;;0.20;0.20;;;;;;;;;;5057613;28;20326;-72
2022/12/30 08:58:56;;;;;;;0.17;0.17;;;;;;;;;;5056773;28;20246;-74
2022/12/30 09:01:23;;;;;;;0.30;0.30;;;;;;;;;;5056519;28;20276;-73
2022/12/30 09:03:50;;;;;;;0.10;0.10;;;;;;;;;;5058226;28;20236;-74
2022/12/30 09:06:17;;;;;;;0.10;0.10;;;;;;;;;;5054643;28;20263;-70
2022/12/30 09:08:44;;;;;;;0.10;0.10;;;;;;;;;;5059137;28;20296;-71
2022/12/30 09:11:13;;;;;;;0.13;0.13;;;;;;;;;;5053305;28;20563;-71
2022/12/30 09:13:40;;;;;;;0.20;0.20;;;;;;;;;;5060700;28;20278;-70
2022/12/30 09:16:07;;;;;;;0.10;0.10;;;;;;;;;;5052019;28;20499;-70
2022/12/30 09:18:34;;;;;;;0.10;0.10;;;;;;;;;;5061780;28;20232;-71
2022/12/30 09:21:00;;;;;;;0.10;0.10;;;;;;;;;;5050304;28;20306;-71
2022/12/30 09:23:27;;;;;;;0.10;0.10;;;;;;;;;;5063489;28;20266;-72
2022/12/30 09:25:53;;;;;;;0.10;0.10;;;;;;;;;;5048066;28;20239;-72
2022/12/30 09:28:20;;;;;;;0.10;0.10;;;;;;;;;;5065339;28;20298;-70
2022/12/30 09:30:47;;;;;;;0.10;0.10;;;;;;;;;;5046034;28;20246;-69
2022/12/30 09:33:15;;;;;;;0.10;0.10;;;;;;;;;;5067093;28;20209;-72
2022/12/30 09:35:41;;;;;;;0.20;0.20;;;;;;;;;;5044926;28;20444;-70
2022/12/30 09:38:07;;;;;;;0.10;0.10;;;;;;;;;;5068192;28;20239;-71
2022/12/30 09:40:45;;;;;;;0.20;0.20;;;;;;;;;;5042892;28;20258;-72
2022/12/30 09:43:15;;;;;;;0.10;0.10;;;;;;;;;;5067429;28;20224;-73
2022/12/30 09:45:46;;;;;;;0.10;0.10;;;;;;;;;;5044930;28;20251;-72
2022/12/30 09:48:17;;;;;;;0.10;0.10;;;;;;;;;;5067068;28;20465;-72
2022/12/30 09:50:46;;;;;;;0.30;0.30;;;;;;;;;;5045021;28;20258;-72
2022/12/30 09:53:14;;;;;;;0.10;0.10;;;;;;;;;;5066847;28;20236;-72
2022/12/30 09:55:45;;;;;;;0.10;0.10;;;;;;;;;;5044176;28;20239;-73
2022/12/30 09:58:15;;;;;;;0.10;0.10;;;;;;;;;;5066957;28;20198;-73
2022/12/30 10:00:42;;;;;;;0.10;0.10;;;;;;;;;;5044402;28;20327;-72
2022/12/30 10:03:14;;;;;;;0.10;0.10;;;;;;;;;;5067728;28;20202;-72
2022/12/30 10:05:48;;;;;;;0.10;0.10;;;;;;;;;;5044196;28;20619;-73
2022/12/30 10:08:21;;;;;;;0.10;0.10;;;;;;;;;;5066125;28;20234;-72
2022/12/30 10:10:51;;;;;;;0.10;0.10;;;;;;;;;;5045572;28;20257;-73
2022/12/30 10:13:19;;;;;;;0.27;0.27;;;;;;;;;;5065103;28;20249;-72
2022/12/30 10:15:51;;;;;;;0.10;0.10;;;;;;;;;;5044827;28;20278;-70
2022/12/30 10:18:28;;;;;;;0.10;0.10;;;;;;;;;;5065050;28;20201;-69
2022/12/30 10:21:02;;;;;;;0.10;0.10;;;;;;;;;;5047352;28;20242;-72
2022/12/30 10:23:33;;;;;;;0.10;0.10;;;;;;;;;;5062201;28;20237;-71
2022/12/30 10:26:05;;;;;;;0.10;0.10;;;;;;;;;;5048303;28;20282;-71
2022/12/30 10:28:35;;;;;;;0.10;0.10;;;;;;;;;;5061168;28;20227;-72
2022/12/30 10:31:03;;;;;;;1.07;1.07;;;;;;;;;;5049368;28;20266;-71
2022/12/30 10:33:32;;;;;;;0.10;0.10;;;;;;;;;;5061675;28;20543;-71
2022/12/30 10:36:12;;;;;;;0.10;0.10;;;;;;;;;;5047939;28;20262;-71
2022/12/30 10:38:39;;;;;;;0.10;0.10;;;;;;;;;;5059055;28;20268;-71
2022/12/30 10:41:13;;;;;;;0.10;0.10;;;;;;;;;;5049928;28;20307;-71
2022/12/30 10:43:45;;;;;;;0.10;0.10;;;;;;;;;;5058899;28;20451;-71
2022/12/30 10:46:33;;;;;;;0.10;0.10;;;;;;;;;;5051573;28;20262;-71
2022/12/30 10:49:14;;;;;;;0.10;0.10;;;;;;;;;;5052678;28;20228;-71
2022/12/30 10:51:42;;;;;;;0.10;0.10;;;;;;;;;;5059095;28;20245;-71
2022/12/30 10:54:09;;;;;;;0.10;0.10;;;;;;;;;;5051212;28;20279;-71
2022/12/30 10:56:36;;;;;;;2.53;0.77;;;;;;;;;;5057511;28;20281;-71
2022/12/30 10:59:05;;;;;;;0.10;0.10;;;;;;;;;;5052808;28;20200;-71
2022/12/30 11:01:33;;;;;;;0.10;0.10;;;;;;;;;;5056339;28;20610;-71
2022/12/30 11:04:00;;;;;;;0.15;0.15;;;;;;;;;;5053469;28;20205;-70
2022/12/30 11:06:27;;;;;;;0.00;0.00;;;;;;;;;;5055018;28;20449;-70
2022/12/30 11:09:15;;;;;;;0.00;0.00;;;;;;;;;;5054867;28;20291;-70
2022/12/30 11:14:44;;;;;;;0.10;0.10;;;;;;;;;;5044378;28;20204;-70
2022/12/30 11:17:16;;;;;;;0.10;0.10;;;;;;;;;;5065724;28;20250;-71
2022/12/30 11:19:43;;;;;;;0.10;0.10;;;;;;;;;;5044284;28;20229;-71
2022/12/30 11:22:10;;;;;;;0.10;0.10;;;;;;;;;;5065793;28;20478;-71
2022/12/30 11:24:38;;;;;;;0.40;0.40;;;;;;;;;;5044023;28;20283;-70
2022/12/30 11:27:04;;;;;;;0.10;0.10;;;;;;;;;;5064645;28;20263;-70
2022/12/30 11:29:33;;;;;;;0.10;0.10;;;;;;;;;;5044737;28;20261;-71
2022/12/30 11:31:59;;;;;;;0.10;0.10;;;;;;;;;;5063194;28;20251;-72
2022/12/30 11:34:28;;;;;;;0.10;0.10;;;;;;;;;;5045807;28;20205;-72
2022/12/30 11:36:55;;;;;;;0.13;0.13;;;;;;;;;;5062024;28;20559;-71
2022/12/30 11:39:26;;;;;;;0.10;0.10;;;;;;;;;;5046965;28;20272;-72
2022/12/30 11:41:54;;;;;;;0.10;0.10;;;;;;;;;;5061297;28;20264;-71
2022/12/30 11:44:23;;;;;;;0.10;0.10;;;;;;;;;;5047280;28;20558;-71
2022/12/30 11:46:51;;;;;;;0.10;0.10;;;;;;;;;;5060645;28;20347;-72
2022/12/30 11:49:28;;;;;;;0.10;0.10;;;;;;;;;;5047989;28;20419;-72
2022/12/30 11:51:56;;;;;;;0.10;0.10;;;;;;;;;;5062189;28;20539;-73
2022/12/30 11:54:24;;;;;;;0.10;0.10;;;;;;;;;;5046015;28;20239;-73
2022/12/30 11:56:51;;;;;;;0.10;0.10;;;;;;;;;;5060664;28;20268;-73
2022/12/30 11:59:22;;;;;;;0.10;0.10;;;;;;;;;;5047665;28;20427;-69
2022/12/30 12:01:50;;;;;;;0.20;0.20;;;;;;;;;;5062532;28;20322;-70
2022/12/30 12:04:30;;;;;;;0.10;0.10;;;;;;;;;;5052950;28;20272;-72
2022/12/30 12:06:57;;;;;;;0.10;0.10;;;;;;;;;;5066137;28;20259;-73
2022/12/30 12:09:26;;;;;;;0.30;0.30;;;;;;;;;;5049848;28;20224;-71
2022/12/30 12:11:52;;;;;;;0.10;0.10;;;;;;;;;;5065214;28;20240;-69
2022/12/30 12:14:23;;;;;;;0.10;0.10;;;;;;;;;;5051172;28;20280;-70
2022/12/30 12:16:52;;;;;;;0.10;0.10;;;;;;;;;;5064339;28;20254;-70
2022/12/30 12:19:23;;;;;;;0.10;0.10;;;;;;;;;;5051105;28;20214;-70
2022/12/30 12:21:53;;;;;;;0.17;0.17;;;;;;;;;;5064291;28;20569;-71
2022/12/30 12:24:22;;;;;;;0.30;0.30;;;;;;;;;;5050936;28;20206;-69
2022/12/30 12:26:52;;;;;;;0.10;0.10;;;;;;;;;;5063742;28;20564;-70
2022/12/30 12:29:20;;;;;;;6.63;0.77;;;;;;;;;;5051015;28;20261;-72
2022/12/30 12:32:02;;;;;;;0.10;0.10;;;;;;;;;;5063028;28;20246;-72
2022/12/30 12:34:37;;;;;;;0.10;0.10;;;;;;;;;;5048311;28;20230;-71
2022/12/30 12:37:10;;;;;;;0.10;0.10;;;;;;;;;;5067759;28;20239;-71
2022/12/30 12:39:46;;;;;;;1.07;1.07;;;;;;;;;;5047158;28;20203;-71
2022/12/30 12:42:14;;;;;;;0.10;0.10;;;;;;;;;;5068756;28;20256;-71
2022/12/30 12:44:53;;;;;;;0.10;0.10;;;;;;;;;;5047046;28;20278;-69
2022/12/30 12:47:31;;;;;;;0.10;0.10;;;;;;;;;;5068443;28;20241;-70
2022/12/30 12:50:03;;;;;;;0.10;0.10;;;;;;;;;;5046813;28;20256;-71
2022/12/30 12:52:36;;;;;;;0.10;0.10;;;;;;;;;;5068401;28;20253;-70
2022/12/30 12:55:19;;;;;;;0.20;0.20;;;;;;;;;;5046890;28;20424;-70
2022/12/30 12:57:49;;;;;;;0.10;0.10;;;;;;;;;;5046346;28;20196;-71
2022/12/30 13:00:18;;;;;;;0.10;0.10;;;;;;;;;;5038360;28;20272;-70
2022/12/30 13:03:17;;;;;;;0.10;0.10;;;;;;;;;;5076250;28;20206;-71
2022/12/30 13:05:48;;;;;;;0.13;0.13;;;;;;;;;;5045678;28;20252;-71
2022/12/30 13:08:27;;;;;;;0.10;0.10;;;;;;;;;;5067607;28;20262;-71
2022/12/30 13:10:58;;;;;;;0.10;0.10;;;;;;;;;;5048412;28;20484;-70
2022/12/30 13:13:29;;;;;;;0.10;0.10;;;;;;;;;;5063786;28;20226;-70
2022/12/30 13:15:58;;;;;;;0.10;0.10;;;;;;;;;;5048845;28;20289;-71
2022/12/30 13:18:26;;;;;;;0.17;0.17;;;;;;;;;;5064535;28;20381;-69
2022/12/30 13:20:53;;;;;;;0.10;0.10;;;;;;;;;;5047929;28;20247;-69
2022/12/30 13:23:24;;;;;;;0.10;0.10;;;;;;;;;;5065451;28;20264;-68
2022/12/30 13:25:53;;;;;;;0.10;0.10;;;;;;;;;;5047202;28;20243;-68
2022/12/30 13:28:21;;;;;;;0.10;0.10;;;;;;;;;;5065482;28;20263;-69
2022/12/30 13:30:55;;;;;;;0.10;0.10;;;;;;;;;;5046264;28;20251;-69
2022/12/30 13:33:26;;;;;;;0.10;0.10;;;;;;;;;;5065295;28;20205;-67
2022/12/30 13:35:56;;;;;;;0.10;0.10;;;;;;;;;;5047874;28;20254;-70
2022/12/30 13:38:28;;;;;;;0.10;0.10;;;;;;;;;;5064638;28;20400;-70
2022/12/30 13:41:01;;;;;;;0.10;0.10;;;;;;;;;;5047937;28;20239;-70
2022/12/30 13:43:32;;;;;;;0.10;0.10;;;;;;;;;;5063371;28;20274;-67
2022/12/30 13:46:01;;;;;;;0.10;0.10;;;;;;;;;;5049127;28;20613;-70
2022/12/30 13:48:33;;;;;;;0.20;0.20;;;;;;;;;;5063009;28;20211;-70
2022/12/30 13:51:01;;;;;;;0.10;0.10;;;;;;;;;;5049315;28;20307;-70
2022/12/30 13:53:31;;;;;;;0.20;0.20;;;;;;;;;;5062970;28;20214;-70
2022/12/30 13:55:57;;;;;;;0.10;0.10;;;;;;;;;;5048633;28;20242;-69
2022/12/30 13:58:26;;;;;;;0.10;0.10;;;;;;;;;;5063979;28;20396;-70
2022/12/30 14:01:08;;;;;;;0.10;0.10;;;;;;;;;;5047403;28;20313;-70
2022/12/30 14:03:36;;;;;;;0.33;0.33;;;;;;;;;;5061081;28;20231;-70
2022/12/30 14:06:03;;;;;;;0.10;0.10;;;;;;;;;;5049685;28;20243;-70
2022/12/30 14:08:59;;;;;;;0.10;0.10;;;;;;;;;;5062086;28;20207;-70
2022/12/30 14:11:26;;;;;;;0.13;0.13;;;;;;;;;;5055837;28;20275;-70
2022/12/30 14:14:22;;;;;;;0.10;0.10;;;;;;;;;;5055825;28;20204;-69
2022/12/30 14:16:50;;;;;;;0.10;0.10;;;;;;;;;;5013079;28;20256;-68
2022/12/30 14:19:28;;;;;;;0.10;0.10;;;;;;;;;;5040145;28;20242;-67
2022/12/30 14:21:55;;;;;;;0.10;0.10;;;;;;;;;;5063217;28;20245;-69
2022/12/30 14:24:40;;;;;;;0.20;0.20;;;;;;;;;;5048082;28;20243;-69
2022/12/30 14:27:27;;;;;;;0.10;0.10;;;;;;;;;;5066282;28;20263;-67
2022/12/30 14:30:01;;;;;;;0.40;0.40;;;;;;;;;;5045096;28;20558;-69
2022/12/30 14:32:27;;;;;;;0.30;0.30;;;;;;;;;;5066584;28;20236;-68
2022/12/30 14:34:58;;;;;;;0.10;0.10;;;;;;;;;;5045024;28;20215;-68
2022/12/30 14:37:25;;;;;;;0.10;0.10;;;;;;;;;;5066508;28;20237;-68
2022/12/30 14:39:52;;;;;;;0.10;0.10;;;;;;;;;;5044854;28;20278;-68
2022/12/30 14:42:23;;;;;;;0.10;0.10;;;;;;;;;;5066267;28;20253;-72
2022/12/30 14:44:51;;;;;;;0.20;0.20;;;;;;;;;;5044699;28;20208;-69
2022/12/30 14:47:35;;;;;;;0.10;0.10;;;;;;;;;;5066281;28;20305;-70
2022/12/30 14:50:04;;;;;;;0.10;0.10;;;;;;;;;;5044707;28;20230;-70
2022/12/30 14:52:31;;;;;;;0.10;0.10;;;;;;;;;;5066236;28;20460;-70
2022/12/30 14:55:05;;;;;;;0.10;0.10;;;;;;;;;;5044667;28;20211;-70
2022/12/30 14:57:33;;;;;;;0.10;0.10;;;;;;;;;;5066040;28;20306;-71
2022/12/30 15:00:12;;;;;;;0.30;0.30;;;;;;;;;;5044532;28;20235;-70
2022/12/30 15:02:43;;;;;;;0.20;0.20;;;;;;;;;;5032790;28;20236;-71
2022/12/30 15:05:14;;;;;;;0.10;0.10;;;;;;;;;;5034778;28;20450;-70
2022/12/30 15:07:41;;;;;;;0.20;0.20;;;;;;;;;;5074361;28;20200;-71
2022/12/30 15:10:22;;;;;;;0.10;0.10;;;;;;;;;;5042016;28;20427;-70
2022/12/30 15:12:49;;;;;;;0.10;0.10;;;;;;;;;;5044219;28;20377;-73
2022/12/30 15:15:19;;;;;;;0.30;0.30;;;;;;;;;;5036083;28;20440;-72
2022/12/30 15:17:45;;;;;;;0.10;0.10;;;;;;;;;;5072813;28;20225;-72
2022/12/30 15:20:27;;;;;;;0.10;0.10;;;;;;;;;;5035226;28;20270;-71
2022/12/30 15:22:53;;;;;;;0.60;0.60;;;;;;;;;;5070695;28;20448;-69
2022/12/30 15:25:21;;;;;;;1.50;1.07;;;;;;;;;;5036977;28;20273;-70
2022/12/30 15:27:51;;;;;;;0.17;0.17;;;;;;;;;;5071797;28;20246;-71
2022/12/30 15:30:18;;;;;;;0.27;0.27;;;;;;;;;;5035965;28;20288;-72
2022/12/30 15:32:44;;;;;;;0.53;0.53;;;;;;;;;;5072630;28;20227;-70
2022/12/30 15:35:14;;;;;;;0.27;0.27;;;;;;;;;;5034323;28;20285;-70
2022/12/30 15:37:43;;;;;;;0.60;0.60;;;;;;;;;;5073708;28;20202;-70
2022/12/30 15:40:12;;;;;;;0.10;0.10;;;;;;;;;;5034220;28;20213;-69
2022/12/30 15:42:40;;;;;;;0.53;0.53;;;;;;;;;;5074397;28;20431;-71
2022/12/30 15:45:20;;;;;;;0.10;0.10;;;;;;;;;;5043950;28;20228;-71
2022/12/30 15:47:46;;;;;;;0.20;0.20;;;;;;;;;;5043454;28;20197;-72
2022/12/30 15:50:28;;;;;;;0.20;0.20;;;;;;;;;;5034925;28;20235;-69
2022/12/30 15:52:56;;;;;;;0.10;0.10;;;;;;;;;;5069995;28;20205;-70